Time,TemperatureF,DewpointF,PressureIn,WindDirection,WindDirectionDegrees,WindSpeedMPH,WindSpeedGustMPH,Humidity,HourlyPrecipIn,Conditions,Clouds,dailyrainin,SoftwareType,DateUTC
2013-01-20 00:01:00,48.9,46.1,30.17,NW,319,8.0,8.0,90,0.00,,---,0.00,VWS V14.01,2013-01-20 05:01:00,
2013-01-20 00:03:00,48.2,45.4,30.16,NW,314,7.0,7.0,90,0.00,,---,0.00,VWS V14.01,2013-01-20 05:03:00,
2013-01-20 00:08:00,47.7,45.5,30.16,NW,317,6.0,6.0,92,0.00,,---,0.00,VWS V14.01,2013-01-20 05:08:00,
2013-01-20 00:13:00,47.7,45.5,30.16,NW,320,6.0,6.0,92,0.00,,---,0.00,VWS V14.01,2013-01-20 05:13:00,
2013-01-20 00:18:00,47.7,45.5,30.16,NW,318,4.0,6.0,92,0.00,,---,0.00,VWS V14.01,2013-01-20 05:18:00,
2013-01-20 00:23:00,47.7,45.5,30.16,NW,317,5.0,7.0,92,0.00,,---,0.00,VWS V14.01,2013-01-20 05:23:00,
2013-01-20 00:28:00,47.6,45.4,30.15,NW,324,5.0,7.0,92,0.00,,---,0.00,VWS V14.01,2013-01-20 05:28:00,
2013-01-20 00:33:00,47.7,45.5,30.15,NW,324,6.0,7.0,92,0.00,,---,0.00,VWS V14.01,2013-01-20 05:33:00,
2013-01-20 00:38:00,47.7,45.5,30.15,NW,313,7.0,7.0,92,0.00,,---,0.00,VWS V14.01,2013-01-20 05:38:00,
2013-01-20 00:43:00,47.8,45.6,30.15,NW,309,5.0,6.0,92,0.00,,---,0.00,VWS V14.01,2013-01-20 05:43:00,
2013-01-20 00:48:00,47.8,45.6,30.15,NW,313,5.0,6.0,92,0.00,,---,0.00,VWS V14.01,2013-01-20 05:48:00,
2013-01-20 00:53:00,47.9,45.7,30.14,NW,313,5.0,5.0,92,0.00,,---,0.00,VWS V14.01,2013-01-20 05:53:00,
2013-01-20 00:58:00,47.8,45.6,30.14,NW,313,3.0,4.0,92,0.00,,---,0.00,VWS V14.01,2013-01-20 05:58:00,
2013-01-20 01:03:00,47.6,45.1,30.14,NW,313,3.0,3.0,91,0.00,,---,0.00,VWS V14.01,2013-01-20 06:03:00,
2013-01-20 01:08:00,47.4,45.2,30.14,NW,306,5.0,5.0,92,0.00,,---,0.00,VWS V14.01,2013-01-20 06:08:00,
2013-01-20 01:13:00,47.4,45.2,30.14,NW,309,4.0,5.0,92,0.00,,---,0.00,VWS V14.01,2013-01-20 06:13:00,
2013-01-20 01:18:00,47.4,45.2,30.14,WNW,302,4.0,5.0,92,0.00,,---,0.00,VWS V14.01,2013-01-20 06:18:00,
2013-01-20 01:23:00,47.5,45.3,30.14,NW,306,4.0,4.0,92,0.00,,---,0.00,VWS V14.01,2013-01-20 06:23:00,
2013-01-20 01:28:00,47.5,45.3,30.14,WNW,302,4.0,6.0,92,0.00,,---,0.00,VWS V14.01,2013-01-20 06:28:00,
2013-01-20 01:33:00,47.7,45.5,30.14,WNW,303,6.0,6.0,92,0.00,,---,0.00,VWS V14.01,2013-01-20 06:33:00,
2013-01-20 01:38:00,47.8,45.6,30.14,NW,304,5.0,7.0,92,0.00,,---,0.00,VWS V14.01,2013-01-20 06:38:00,
2013-01-20 01:43:00,47.9,45.7,30.14,WNW,302,6.0,6.0,92,0.00,,---,0.00,VWS V14.01,2013-01-20 06:43:00,
2013-01-20 01:48:00,48.4,46.2,30.14,WNW,294,5.0,8.0,92,0.00,,---,0.00,VWS V14.01,2013-01-20 06:48:00,
2013-01-20 01:53:00,48.7,46.5,30.14,WNW,289,7.0,7.0,92,0.00,,---,0.00,VWS V14.01,2013-01-20 06:53:00,
2013-01-20 01:58:00,48.8,46.3,30.14,WNW,294,5.0,7.0,91,0.00,,---,0.00,VWS V14.01,2013-01-20 06:58:00,
2013-01-20 02:03:00,48.8,46.3,30.14,WNW,290,4.0,7.0,91,0.00,,---,0.00,VWS V14.01,2013-01-20 07:03:00,
2013-01-20 02:08:00,49.1,46.6,30.13,West,277,5.0,8.0,91,0.00,,---,0.00,VWS V14.01,2013-01-20 07:08:00,
2013-01-20 02:13:00,49.2,46.7,30.13,WNW,293,5.0,7.0,91,0.00,,---,0.00,VWS V14.01,2013-01-20 07:13:00,
2013-01-20 02:18:00,49.2,46.4,30.13,WNW,290,7.0,7.0,90,0.00,,---,0.00,VWS V14.01,2013-01-20 07:18:00,
2013-01-20 02:23:00,49.2,46.4,30.12,WNW,287,6.0,8.0,90,0.00,,---,0.00,VWS V14.01,2013-01-20 07:23:00,
2013-01-20 02:28:00,49.2,46.4,30.13,WNW,296,6.0,6.0,90,0.00,,---,0.00,VWS V14.01,2013-01-20 07:28:00,
2013-01-20 02:33:00,49.3,46.5,30.12,WNW,285,6.0,8.0,90,0.00,,---,0.00,VWS V14.01,2013-01-20 07:33:00,
2013-01-20 02:38:00,49.4,46.3,30.12,WNW,290,6.0,7.0,89,0.00,,---,0.00,VWS V14.01,2013-01-20 07:38:00,
2013-01-20 02:43:00,49.4,46.3,30.12,West,281,6.0,8.0,89,0.00,,---,0.00,VWS V14.01,2013-01-20 07:43:00,
2013-01-20 02:48:00,49.2,46.1,30.12,West,273,5.0,7.0,89,0.00,,---,0.00,VWS V14.01,2013-01-20 07:48:00,
2013-01-20 02:53:00,49.3,46.2,30.12,West,263,5.0,5.0,89,0.00,,---,0.00,VWS V14.01,2013-01-20 07:53:00,
2013-01-20 02:58:00,49.3,46.2,30.12,West,276,7.0,8.0,89,0.00,,---,0.00,VWS V14.01,2013-01-20 07:58:00,
2013-01-20 03:03:00,49.4,46.0,30.12,West,277,5.0,5.0,88,0.00,,---,0.00,VWS V14.01,2013-01-20 08:03:00,
2013-01-20 03:08:00,49.6,46.2,30.12,West,259,7.0,8.0,88,0.00,,---,0.00,VWS V14.01,2013-01-20 08:08:00,
2013-01-20 03:13:00,50.3,46.9,30.12,West,265,9.0,9.0,88,0.00,,---,0.00,VWS V14.01,2013-01-20 08:13:00,
2013-01-20 03:18:00,50.3,46.9,30.12,West,275,8.0,8.0,88,0.00,,---,0.00,VWS V14.01,2013-01-20 08:18:00,
2013-01-20 03:23:00,50.2,46.8,30.12,West,275,9.0,9.0,88,0.00,,---,0.00,VWS V14.01,2013-01-20 08:23:00,
2013-01-20 03:28:00,50.1,46.7,30.12,West,274,6.0,8.0,88,0.00,,---,0.00,VWS V14.01,2013-01-20 08:28:00,
2013-01-20 03:33:00,50.0,46.6,30.12,West,281,6.0,8.0,88,0.00,,---,0.00,VWS V14.01,2013-01-20 08:33:00,
2013-01-20 03:38:00,49.8,46.4,30.12,West,278,7.0,7.0,88,0.00,,---,0.00,VWS V14.01,2013-01-20 08:38:00,
2013-01-20 03:43:00,49.7,46.3,30.12,West,275,8.0,9.0,88,0.00,,---,0.00,VWS V14.01,2013-01-20 08:43:00,
2013-01-20 03:48:00,49.7,46.3,30.12,West,280,7.0,8.0,88,0.00,,---,0.00,VWS V14.01,2013-01-20 08:48:00,
2013-01-20 03:53:00,49.6,46.2,30.12,West,271,8.0,8.0,88,0.00,,---,0.00,VWS V14.01,2013-01-20 08:53:00,
2013-01-20 03:58:00,49.5,46.1,30.11,West,269,7.0,9.0,88,0.00,,---,0.00,VWS V14.01,2013-01-20 08:58:00,
2013-01-20 04:03:00,49.5,46.1,30.11,West,271,7.0,10.0,88,0.00,,---,0.00,VWS V14.01,2013-01-20 09:03:00,
2013-01-20 04:08:00,49.3,45.9,30.11,West,273,8.0,9.0,88,0.00,,---,0.00,VWS V14.01,2013-01-20 09:08:00,
2013-01-20 04:13:00,49.3,45.9,30.11,West,269,9.0,9.0,88,0.00,,---,0.00,VWS V14.01,2013-01-20 09:13:00,
2013-01-20 04:18:00,49.2,45.8,30.11,West,271,8.0,9.0,88,0.00,,---,0.00,VWS V14.01,2013-01-20 09:18:00,
2013-01-20 04:23:00,49.4,46.3,30.11,West,281,6.0,8.0,89,0.00,,---,0.00,VWS V14.01,2013-01-20 09:23:00,
2013-01-20 04:28:00,49.4,46.0,30.11,West,277,6.0,9.0,88,0.00,,---,0.00,VWS V14.01,2013-01-20 09:28:00,
2013-01-20 04:33:00,49.2,45.8,30.11,WNW,291,5.0,9.0,88,0.00,,---,0.00,VWS V14.01,2013-01-20 09:33:00,
2013-01-20 04:38:00,48.9,45.5,30.10,West,281,6.0,7.0,88,0.00,,---,0.00,VWS V14.01,2013-01-20 09:38:00,
2013-01-20 04:43:00,48.8,45.4,30.11,West,278,8.0,9.0,88,0.00,,---,0.00,VWS V14.01,2013-01-20 09:43:00,
2013-01-20 04:48:00,48.9,45.5,30.11,West,270,6.0,7.0,88,0.00,,---,0.00,VWS V14.01,2013-01-20 09:48:00,
2013-01-20 04:53:00,49.3,45.9,30.10,West,259,8.0,8.0,88,0.00,,---,0.00,VWS V14.01,2013-01-20 09:53:00,
2013-01-20 04:58:00,49.4,46.0,30.10,West,277,7.0,10.0,88,0.00,,---,0.00,VWS V14.01,2013-01-20 09:58:00,
2013-01-20 05:03:00,49.5,46.1,30.10,West,274,8.0,9.0,88,0.00,,---,0.00,VWS V14.01,2013-01-20 10:03:00,
2013-01-20 05:08:00,49.5,45.8,30.10,WNW,287,7.0,8.0,87,0.00,,---,0.00,VWS V14.01,2013-01-20 10:08:00,
2013-01-20 05:13:00,49.3,45.9,30.10,West,277,8.0,10.0,88,0.00,,---,0.00,VWS V14.01,2013-01-20 10:13:00,
2013-01-20 05:18:00,49.3,45.9,30.10,WNW,283,8.0,9.0,88,0.00,,---,0.00,VWS V14.01,2013-01-20 10:18:00,
2013-01-20 05:23:00,49.6,46.2,30.10,WNW,283,9.0,11.0,88,0.00,,---,0.00,VWS V14.01,2013-01-20 10:23:00,
2013-01-20 05:28:00,49.5,46.1,30.10,West,272,8.0,8.0,88,0.00,,---,0.00,VWS V14.01,2013-01-20 10:28:00,
2013-01-20 05:33:00,49.5,46.1,30.10,West,271,8.0,8.0,88,0.00,,---,0.00,VWS V14.01,2013-01-20 10:33:00,
2013-01-20 05:38:00,49.4,46.0,30.10,West,267,7.0,8.0,88,0.00,,---,0.00,VWS V14.01,2013-01-20 10:38:00,
2013-01-20 05:43:00,49.3,45.9,30.10,West,275,8.0,8.0,88,0.00,,---,0.00,VWS V14.01,2013-01-20 10:43:00,
2013-01-20 05:48:00,49.2,45.8,30.10,West,271,8.0,10.0,88,0.00,,---,0.00,VWS V14.01,2013-01-20 10:48:00,
2013-01-20 05:53:00,49.1,45.7,30.10,West,275,8.0,10.0,88,0.00,,---,0.00,VWS V14.01,2013-01-20 10:53:00,
2013-01-20 05:58:00,49.1,46.0,30.10,West,273,8.0,8.0,89,0.00,,---,0.00,VWS V14.01,2013-01-20 10:58:00,
2013-01-20 06:03:00,49.0,45.9,30.10,West,275,8.0,8.0,89,0.00,,---,0.00,VWS V14.01,2013-01-20 11:03:00,
2013-01-20 06:08:00,48.9,45.8,30.10,WNW,282,6.0,6.0,89,0.00,,---,0.00,VWS V14.01,2013-01-20 11:08:00,
2013-01-20 06:13:00,48.8,45.7,30.10,West,273,6.0,6.0,89,0.00,,---,0.00,VWS V14.01,2013-01-20 11:13:00,
2013-01-20 06:18:00,48.6,45.5,30.10,West,275,4.0,6.0,89,0.00,,---,0.00,VWS V14.01,2013-01-20 11:18:00,
2013-01-20 06:23:00,48.5,45.4,30.10,West,276,6.0,6.0,89,0.00,,---,0.00,VWS V14.01,2013-01-20 11:23:00,
2013-01-20 06:28:00,48.3,45.2,30.10,West,274,6.0,7.0,89,0.00,,---,0.00,VWS V14.01,2013-01-20 11:28:00,
2013-01-20 06:33:00,48.3,45.5,30.10,West,264,6.0,7.0,90,0.00,,---,0.00,VWS V14.01,2013-01-20 11:33:00,
2013-01-20 06:38:00,48.1,45.3,30.10,West,277,6.0,6.0,90,0.00,,---,0.00,VWS V14.01,2013-01-20 11:38:00,
2013-01-20 06:43:00,48.0,45.2,30.10,West,275,7.0,7.0,90,0.00,,---,0.00,VWS V14.01,2013-01-20 11:43:00,
2013-01-20 06:48:00,48.0,45.2,30.10,West,277,6.0,8.0,90,0.00,,---,0.00,VWS V14.01,2013-01-20 11:48:00,
2013-01-20 06:53:00,48.1,45.3,30.10,West,276,8.0,8.0,90,0.00,,---,0.00,VWS V14.01,2013-01-20 11:53:00,
2013-01-20 06:58:00,48.0,45.2,30.10,West,271,7.0,8.0,90,0.00,,---,0.00,VWS V14.01,2013-01-20 11:58:00,
2013-01-20 07:03:00,48.0,45.2,30.10,West,271,7.0,7.0,90,0.00,,---,0.00,VWS V14.01,2013-01-20 12:03:00,
2013-01-20 07:08:00,48.1,45.0,30.10,West,271,5.0,8.0,89,0.00,,---,0.00,VWS V14.01,2013-01-20 12:08:00,
2013-01-20 07:13:00,48.1,45.0,30.11,West,281,6.0,7.0,89,0.00,,---,0.00,VWS V14.01,2013-01-20 12:13:00,
2013-01-20 07:18:00,48.1,45.0,30.11,West,274,5.0,8.0,89,0.00,,---,0.00,VWS V14.01,2013-01-20 12:18:00,
2013-01-20 07:23:00,48.0,44.9,30.11,West,275,5.0,6.0,89,0.00,,---,0.00,VWS V14.01,2013-01-20 12:23:00,
2013-01-20 07:28:00,47.9,44.8,30.11,West,269,5.0,6.0,89,0.00,,---,0.00,VWS V14.01,2013-01-20 12:28:00,
2013-01-20 07:33:00,48.2,45.1,30.11,West,274,5.0,7.0,89,0.00,,---,0.00,VWS V14.01,2013-01-20 12:33:00,
2013-01-20 07:38:00,48.3,44.9,30.11,WNW,290,4.0,5.0,88,0.00,,---,0.00,VWS V14.01,2013-01-20 12:38:00,
2013-01-20 07:43:00,48.5,45.1,30.11,West,270,4.0,5.0,88,0.00,,---,0.00,VWS V14.01,2013-01-20 12:43:00,
2013-01-20 07:48:00,49.1,45.7,30.11,West,278,5.0,7.0,88,0.00,,---,0.00,VWS V14.01,2013-01-20 12:48:00,
2013-01-20 07:53:00,49.4,45.7,30.10,West,265,6.0,7.0,87,0.00,,---,0.00,VWS V14.01,2013-01-20 12:53:00,
2013-01-20 07:58:00,49.8,46.1,30.10,WNW,283,9.0,10.0,87,0.00,,---,0.00,VWS V14.01,2013-01-20 12:58:00,
2013-01-20 08:03:00,50.0,46.0,30.10,West,281,7.0,10.0,86,0.00,,---,0.00,VWS V14.01,2013-01-20 13:03:00,
2013-01-20 08:08:00,50.5,46.2,30.10,West,274,8.0,10.0,85,0.00,,---,0.00,VWS V14.01,2013-01-20 13:08:00,
2013-01-20 08:13:00,51.2,46.5,30.10,West,275,5.0,8.0,84,0.00,,---,0.00,VWS V14.01,2013-01-20 13:13:00,
2013-01-20 08:18:00,51.7,46.7,30.10,West,261,10.0,10.0,83,0.00,,---,0.00,VWS V14.01,2013-01-20 13:18:00,
2013-01-20 08:23:00,52.1,47.1,30.10,West,267,9.0,9.0,83,0.00,,---,0.00,VWS V14.01,2013-01-20 13:23:00,
2013-01-20 08:28:00,52.4,47.1,30.11,West,273,9.0,9.0,82,0.00,,---,0.00,VWS V14.01,2013-01-20 13:28:00,
2013-01-20 08:33:00,52.4,46.8,30.11,West,260,9.0,9.0,81,0.00,,---,0.00,VWS V14.01,2013-01-20 13:33:00,
2013-01-20 08:38:00,53.0,47.3,30.11,West,266,9.0,10.0,81,0.00,,---,0.00,VWS V14.01,2013-01-20 13:38:00,
2013-01-20 08:43:00,53.4,47.4,30.11,West,267,10.0,12.0,80,0.00,,---,0.00,VWS V14.01,2013-01-20 13:43:00,
2013-01-20 08:48:00,53.7,47.7,30.11,West,263,10.0,13.0,80,0.00,,---,0.00,VWS V14.01,2013-01-20 13:48:00,
2013-01-20 08:53:00,53.9,47.5,30.11,West,262,13.0,15.0,79,0.00,,---,0.00,VWS V14.01,2013-01-20 13:53:00,
2013-01-20 08:58:00,54.1,47.7,30.11,WSW,257,14.0,16.0,79,0.00,,---,0.00,VWS V14.01,2013-01-20 13:58:00,
2013-01-20 09:03:00,54.1,47.4,30.11,WSW,256,13.0,14.0,78,0.00,,---,0.00,VWS V14.01,2013-01-20 14:03:00,
2013-01-20 09:08:00,53.6,47.3,30.11,WSW,255,15.0,16.0,79,0.00,,---,0.00,VWS V14.01,2013-01-20 14:08:00,
2013-01-20 09:13:00,53.5,47.5,30.11,West,261,14.0,16.0,80,0.00,,---,0.00,VWS V14.01,2013-01-20 14:13:00,
2013-01-20 09:18:00,53.7,47.7,30.11,WSW,256,13.0,15.0,80,0.00,,---,0.00,VWS V14.01,2013-01-20 14:18:00,
2013-01-20 09:23:00,53.7,47.7,30.11,WSW,257,12.0,17.0,80,0.00,,---,0.00,VWS V14.01,2013-01-20 14:23:00,
2013-01-20 09:28:00,53.5,47.5,30.11,WSW,254,14.0,16.0,80,0.00,,---,0.00,VWS V14.01,2013-01-20 14:28:00,
2013-01-20 09:33:00,53.2,47.2,30.11,WSW,252,18.0,18.0,80,0.00,,---,0.00,VWS V14.01,2013-01-20 14:33:00,
2013-01-20 09:38:00,53.2,47.5,30.11,WSW,252,16.0,17.0,81,0.00,,---,0.00,VWS V14.01,2013-01-20 14:38:00,
2013-01-20 09:43:00,53.5,48.2,30.11,WSW,255,13.0,15.0,82,0.00,,---,0.00,VWS V14.01,2013-01-20 14:43:00,
2013-01-20 09:48:00,53.3,47.6,30.11,WSW,250,17.0,18.0,81,0.00,,---,0.00,VWS V14.01,2013-01-20 14:48:00,
2013-01-20 09:53:00,53.2,47.5,30.11,WSW,245,15.0,19.0,81,0.00,,---,0.00,VWS V14.01,2013-01-20 14:53:00,
2013-01-20 09:58:00,53.5,47.8,30.11,WSW,246,18.0,19.0,81,0.00,,---,0.00,VWS V14.01,2013-01-20 14:58:00,
2013-01-20 10:03:00,53.8,48.4,30.11,WSW,257,14.0,17.0,82,0.00,,---,0.00,VWS V14.01,2013-01-20 15:03:00,
2013-01-20 10:08:00,54.2,48.5,30.11,WSW,257,16.0,17.0,81,0.00,,---,0.00,VWS V14.01,2013-01-20 15:08:00,
2013-01-20 10:13:00,54.0,48.0,30.11,WSW,242,17.0,18.0,80,0.00,,---,0.00,VWS V14.01,2013-01-20 15:13:00,
2013-01-20 10:18:00,54.0,48.3,30.11,WSW,252,13.0,18.0,81,0.00,,---,0.00,VWS V14.01,2013-01-20 15:18:00,
2013-01-20 10:23:00,54.2,48.5,30.11,WSW,248,16.0,16.0,81,0.00,,---,0.00,VWS V14.01,2013-01-20 15:23:00,
2013-01-20 10:28:00,54.2,48.8,30.11,WSW,257,13.0,15.0,82,0.00,,---,0.00,VWS V14.01,2013-01-20 15:28:00,
2013-01-20 10:33:00,54.4,49.0,30.10,WSW,256,16.0,16.0,82,0.00,,---,0.00,VWS V14.01,2013-01-20 15:33:00,
2013-01-20 10:38:00,54.5,49.1,30.10,West,260,13.0,16.0,82,0.00,,---,0.00,VWS V14.01,2013-01-20 15:38:00,
2013-01-20 10:43:00,54.5,49.1,30.10,WSW,254,16.0,16.0,82,0.00,,---,0.00,VWS V14.01,2013-01-20 15:43:00,
2013-01-20 10:48:00,54.6,49.2,30.09,WSW,250,12.0,14.0,82,0.00,,---,0.00,VWS V14.01,2013-01-20 15:48:00,
2013-01-20 10:53:00,54.6,49.2,30.09,WSW,252,12.0,14.0,82,0.00,,---,0.00,VWS V14.01,2013-01-20 15:53:00,
2013-01-20 10:58:00,54.8,49.4,30.09,WSW,252,13.0,14.0,82,0.00,,---,0.00,VWS V14.01,2013-01-20 15:58:00,
2013-01-20 11:03:00,54.6,49.2,30.08,WSW,249,13.0,15.0,82,0.00,,---,0.00,VWS V14.01,2013-01-20 16:03:00,
2013-01-20 11:08:00,54.4,49.7,30.08,WSW,246,13.0,15.0,84,0.00,,---,0.00,VWS V14.01,2013-01-20 16:08:00,
2013-01-20 11:13:00,54.1,49.4,30.08,WSW,250,12.0,14.0,84,0.00,,---,0.00,VWS V14.01,2013-01-20 16:13:00,
2013-01-20 11:18:00,54.0,49.6,30.07,WSW,244,8.0,11.0,85,0.00,,---,0.00,VWS V14.01,2013-01-20 16:18:00,
2013-01-20 11:23:00,53.8,49.4,30.07,WSW,250,15.0,15.0,85,0.00,,---,0.00,VWS V14.01,2013-01-20 16:23:00,
2013-01-20 11:28:00,53.9,49.2,30.07,WSW,237,9.0,13.0,84,0.00,,---,0.00,VWS V14.01,2013-01-20 16:28:00,
2013-01-20 11:33:00,53.9,49.2,30.06,WSW,244,12.0,13.0,84,0.00,,---,0.00,VWS V14.01,2013-01-20 16:33:00,
2013-01-20 11:38:00,54.0,49.3,30.06,WSW,244,10.0,11.0,84,0.00,,---,0.00,VWS V14.01,2013-01-20 16:38:00,
2013-01-20 11:43:00,54.0,49.3,30.05,WSW,241,9.0,11.0,84,0.00,,---,0.00,VWS V14.01,2013-01-20 16:43:00,
2013-01-20 11:48:00,53.9,49.2,30.05,WSW,244,12.0,13.0,84,0.00,,---,0.00,VWS V14.01,2013-01-20 16:48:00,
2013-01-20 11:53:00,53.9,49.2,30.04,WSW,238,10.0,12.0,84,0.00,,---,0.00,VWS V14.01,2013-01-20 16:53:00,
2013-01-20 11:58:00,53.9,49.5,30.04,SW,236,12.0,13.0,85,0.00,,---,0.00,VWS V14.01,2013-01-20 16:58:00,
2013-01-20 12:03:00,54.0,49.6,30.03,WSW,238,10.0,11.0,85,0.00,,---,0.00,VWS V14.01,2013-01-20 17:03:00,
2013-01-20 12:08:00,53.9,49.5,30.03,SW,236,12.0,12.0,85,0.00,,---,0.00,VWS V14.01,2013-01-20 17:08:00,
2013-01-20 12:13:00,53.9,49.8,30.03,WSW,242,11.0,11.0,86,0.00,,---,0.00,VWS V14.01,2013-01-20 17:13:00,
2013-01-20 12:18:00,54.0,49.6,30.02,WSW,247,9.0,11.0,85,0.00,,---,0.00,VWS V14.01,2013-01-20 17:18:00,
2013-01-20 12:23:00,54.2,49.8,30.02,WSW,240,9.0,11.0,85,0.00,,---,0.00,VWS V14.01,2013-01-20 17:23:00,
2013-01-20 12:28:00,54.3,49.9,30.02,WSW,239,10.0,11.0,85,0.00,,---,0.00,VWS V14.01,2013-01-20 17:28:00,
2013-01-20 12:33:00,54.4,50.0,30.01,WSW,237,9.0,10.0,85,0.00,,---,0.00,VWS V14.01,2013-01-20 17:33:00,
2013-01-20 12:38:00,54.4,50.0,30.01,WSW,239,9.0,10.0,85,0.00,,---,0.00,VWS V14.01,2013-01-20 17:38:00,
2013-01-20 12:43:00,54.5,50.1,30.01,SW,235,9.0,10.0,85,0.00,,---,0.00,VWS V14.01,2013-01-20 17:43:00,
2013-01-20 12:48:00,54.5,50.1,30.01,WSW,245,10.0,12.0,85,0.00,,---,0.00,VWS V14.01,2013-01-20 17:48:00,
2013-01-20 12:53:00,54.6,50.2,30.00,WSW,242,9.0,12.0,85,0.00,,---,0.00,VWS V14.01,2013-01-20 17:53:00,
2013-01-20 12:58:00,54.7,50.3,30.00,WSW,240,11.0,11.0,85,0.00,,---,0.00,VWS V14.01,2013-01-20 17:58:00,
2013-01-20 13:03:00,54.8,50.1,30.00,WSW,241,10.0,13.0,84,0.00,,---,0.00,VWS V14.01,2013-01-20 18:03:00,
2013-01-20 13:08:00,54.9,50.2,30.00,WSW,242,11.0,11.0,84,0.00,,---,0.00,VWS V14.01,2013-01-20 18:08:00,
2013-01-20 13:13:00,54.9,50.2,30.00,WSW,241,11.0,13.0,84,0.00,,---,0.00,VWS V14.01,2013-01-20 18:13:00,
2013-01-20 13:18:00,54.9,49.8,29.99,WSW,242,9.0,12.0,83,0.00,,---,0.00,VWS V14.01,2013-01-20 18:18:00,
2013-01-20 13:23:00,55.0,49.9,29.99,WSW,242,10.0,11.0,83,0.00,,---,0.00,VWS V14.01,2013-01-20 18:23:00,
2013-01-20 13:28:00,55.1,50.0,29.99,WSW,244,9.0,11.0,83,0.00,,---,0.00,VWS V14.01,2013-01-20 18:28:00,
2013-01-20 13:33:00,55.1,50.0,29.99,WSW,239,8.0,10.0,83,0.00,,---,0.00,VWS V14.01,2013-01-20 18:33:00,
2013-01-20 13:38:00,55.1,50.0,29.99,WSW,239,8.0,9.0,83,0.00,,---,0.00,VWS V14.01,2013-01-20 18:38:00,
2013-01-20 13:43:00,55.2,49.8,29.99,WSW,237,8.0,12.0,82,0.00,,---,0.00,VWS V14.01,2013-01-20 18:43:00,
2013-01-20 13:48:00,55.2,49.8,29.99,WSW,237,11.0,11.0,82,0.00,,---,0.00,VWS V14.01,2013-01-20 18:48:00,
2013-01-20 13:53:00,55.3,49.9,29.98,WSW,242,10.0,13.0,82,0.00,,---,0.00,VWS V14.01,2013-01-20 18:53:00,
2013-01-20 13:58:00,55.3,49.9,29.98,WSW,245,10.0,12.0,82,0.00,,---,0.00,VWS V14.01,2013-01-20 18:58:00,
2013-01-20 14:03:00,55.4,50.0,29.98,WSW,245,11.0,13.0,82,0.00,,---,0.00,VWS V14.01,2013-01-20 19:03:00,
2013-01-20 14:08:00,55.4,50.0,29.98,WSW,250,10.0,11.0,82,0.00,,---,0.00,VWS V14.01,2013-01-20 19:08:00,
2013-01-20 14:13:00,55.5,50.1,29.98,WSW,250,12.0,12.0,82,0.00,,---,0.00,VWS V14.01,2013-01-20 19:13:00,
2013-01-20 14:18:00,55.6,50.5,29.98,WSW,245,11.0,12.0,83,0.00,,---,0.00,VWS V14.01,2013-01-20 19:18:00,
2013-01-20 14:23:00,55.5,50.4,29.97,WSW,244,11.0,12.0,83,0.00,,---,0.00,VWS V14.01,2013-01-20 19:23:00,
2013-01-20 14:28:00,55.7,50.6,29.97,WSW,244,10.0,12.0,83,0.00,,---,0.00,VWS V14.01,2013-01-20 19:28:00,
2013-01-20 14:33:00,55.6,50.5,29.97,WSW,245,10.0,11.0,83,0.00,,---,0.00,VWS V14.01,2013-01-20 19:33:00,
2013-01-20 14:38:00,55.7,50.6,29.97,WSW,252,9.0,10.0,83,0.00,,---,0.00,VWS V14.01,2013-01-20 19:38:00,
2013-01-20 14:43:00,56.0,50.6,29.97,WSW,244,11.0,11.0,82,0.00,,---,0.00,VWS V14.01,2013-01-20 19:43:00,
2013-01-20 14:48:00,55.9,50.2,29.97,WSW,246,11.0,13.0,81,0.00,,---,0.00,VWS V14.01,2013-01-20 19:48:00,
2013-01-20 14:53:00,56.1,50.7,29.97,WSW,250,10.0,10.0,82,0.00,,---,0.00,VWS V14.01,2013-01-20 19:53:00,
2013-01-20 14:58:00,56.6,50.8,29.97,WSW,258,8.0,10.0,81,0.00,,---,0.00,VWS V14.01,2013-01-20 19:58:00,
2013-01-20 15:03:00,56.9,50.8,29.97,WSW,252,10.0,12.0,80,0.00,,---,0.00,VWS V14.01,2013-01-20 20:03:00,
2013-01-20 15:08:00,56.5,50.4,29.97,WSW,247,10.0,11.0,80,0.00,,---,0.00,VWS V14.01,2013-01-20 20:08:00,
2013-01-20 15:13:00,56.8,51.0,29.97,WSW,254,11.0,11.0,81,0.00,,---,0.00,VWS V14.01,2013-01-20 20:13:00,
2013-01-20 15:18:00,57.0,50.9,29.97,WSW,255,8.0,8.0,80,0.00,,---,0.00,VWS V14.01,2013-01-20 20:18:00,
2013-01-20 15:23:00,57.3,51.2,29.97,West,263,7.0,8.0,80,0.00,,---,0.00,VWS V14.01,2013-01-20 20:23:00,
2013-01-20 15:28:00,57.5,51.0,29.97,West,261,9.0,10.0,79,0.00,,---,0.00,VWS V14.01,2013-01-20 20:28:00,
2013-01-20 15:33:00,57.6,51.1,29.97,West,266,7.0,8.0,79,0.00,,---,0.00,VWS V14.01,2013-01-20 20:33:00,
2013-01-20 15:38:00,57.6,51.1,29.97,West,263,8.0,9.0,79,0.00,,---,0.00,VWS V14.01,2013-01-20 20:38:00,
2013-01-20 15:43:00,57.6,51.1,29.97,WSW,256,9.0,9.0,79,0.00,,---,0.00,VWS V14.01,2013-01-20 20:43:00,
2013-01-20 15:48:00,57.6,51.1,29.97,WSW,250,8.0,9.0,79,0.00,,---,0.00,VWS V14.01,2013-01-20 20:48:00,
2013-01-20 15:53:00,57.4,51.3,29.97,WSW,252,9.0,9.0,80,0.00,,---,0.00,VWS V14.01,2013-01-20 20:53:00,
2013-01-20 15:58:00,57.2,51.1,29.97,WSW,253,7.0,9.0,80,0.00,,---,0.00,VWS V14.01,2013-01-20 20:58:00,
2013-01-20 16:03:00,56.8,51.0,29.97,WSW,245,6.0,8.0,81,0.00,,---,0.00,VWS V14.01,2013-01-20 21:03:00,
2013-01-20 16:08:00,56.3,51.2,29.98,WSW,251,8.0,10.0,83,0.00,,---,0.00,VWS V14.01,2013-01-20 21:08:00,
2013-01-20 16:13:00,56.0,51.2,29.97,WSW,238,10.0,11.0,84,0.00,,---,0.00,VWS V14.01,2013-01-20 21:13:00,
2013-01-20 16:18:00,56.0,51.2,29.98,WSW,244,9.0,10.0,84,0.00,,---,0.00,VWS V14.01,2013-01-20 21:18:00,
2013-01-20 16:23:00,56.0,51.2,29.98,WSW,238,10.0,10.0,84,0.00,,---,0.00,VWS V14.01,2013-01-20 21:23:00,
2013-01-20 16:28:00,56.0,51.2,29.98,WSW,240,8.0,9.0,84,0.00,,---,0.00,VWS V14.01,2013-01-20 21:28:00,
2013-01-20 16:33:00,55.9,51.5,29.98,WSW,243,10.0,11.0,85,0.00,,---,0.00,VWS V14.01,2013-01-20 21:33:00,
2013-01-20 16:38:00,55.9,51.5,29.98,WSW,244,11.0,11.0,85,0.00,,---,0.00,VWS V14.01,2013-01-20 21:38:00,
2013-01-20 16:43:00,55.8,51.7,29.97,WSW,238,9.0,10.0,86,0.00,,---,0.00,VWS V14.01,2013-01-20 21:43:00,
2013-01-20 16:48:00,55.7,51.6,29.97,WSW,240,11.0,11.0,86,0.00,,---,0.00,VWS V14.01,2013-01-20 21:48:00,
2013-01-20 16:53:00,55.6,51.5,29.98,WSW,245,9.0,12.0,86,0.00,,---,0.00,VWS V14.01,2013-01-20 21:53:00,
2013-01-20 16:58:00,55.5,51.4,29.98,WSW,239,10.0,11.0,86,0.00,,---,0.00,VWS V14.01,2013-01-20 21:58:00,
2013-01-20 17:03:00,55.4,51.6,29.98,WSW,245,11.0,12.0,87,0.00,,---,0.00,VWS V14.01,2013-01-20 22:03:00,
2013-01-20 17:08:00,55.4,51.6,29.98,WSW,238,11.0,12.0,87,0.00,,---,0.00,VWS V14.01,2013-01-20 22:08:00,
2013-01-20 17:13:00,55.4,51.6,29.98,WSW,244,10.0,12.0,87,0.00,,---,0.00,VWS V14.01,2013-01-20 22:13:00,
2013-01-20 17:18:00,55.3,51.5,29.98,WSW,253,12.0,14.0,87,0.00,,---,0.00,VWS V14.01,2013-01-20 22:18:00,
2013-01-20 17:23:00,55.3,51.5,29.98,West,259,11.0,12.0,87,0.00,,---,0.00,VWS V14.01,2013-01-20 22:23:00,
2013-01-20 17:28:00,55.1,51.6,29.98,WSW,246,12.0,13.0,88,0.00,,---,0.00,VWS V14.01,2013-01-20 22:28:00,
2013-01-20 17:33:00,55.0,51.5,29.99,WSW,254,11.0,13.0,88,0.00,,---,0.00,VWS V14.01,2013-01-20 22:33:00,
2013-01-20 17:38:00,55.0,51.5,29.99,WSW,258,11.0,12.0,88,0.00,,---,0.00,VWS V14.01,2013-01-20 22:38:00,
2013-01-20 17:43:00,54.9,51.4,29.99,WSW,256,9.0,11.0,88,0.00,,---,0.00,VWS V14.01,2013-01-20 22:43:00,
2013-01-20 17:48:00,54.8,51.3,29.99,WSW,257,11.0,11.0,88,0.00,,---,0.00,VWS V14.01,2013-01-20 22:48:00,
2013-01-20 17:53:00,54.8,51.3,29.99,West,259,10.0,11.0,88,0.00,,---,0.00,VWS V14.01,2013-01-20 22:53:00,
2013-01-20 17:58:00,54.7,51.2,29.99,WSW,255,10.0,11.0,88,0.00,,---,0.00,VWS V14.01,2013-01-20 22:58:00,
2013-01-20 18:03:00,54.7,51.5,29.99,WSW,257,11.0,11.0,89,0.00,,---,0.00,VWS V14.01,2013-01-20 23:03:00,
2013-01-20 18:08:00,54.6,51.4,30.00,WSW,257,11.0,11.0,89,0.00,,---,0.00,VWS V14.01,2013-01-20 23:08:00,
2013-01-20 18:13:00,54.6,51.4,29.99,West,263,10.0,11.0,89,0.00,,---,0.00,VWS V14.01,2013-01-20 23:13:00,
2013-01-20 18:18:00,54.5,51.3,30.00,West,263,10.0,11.0,89,0.00,,---,0.00,VWS V14.01,2013-01-20 23:18:00,
2013-01-20 18:23:00,54.4,51.2,30.00,WSW,257,10.0,10.0,89,0.00,,---,0.00,VWS V14.01,2013-01-20 23:23:00,
2013-01-20 18:28:00,54.4,51.2,30.00,West,263,9.0,10.0,89,0.00,,---,0.00,VWS V14.01,2013-01-20 23:28:00,
2013-01-20 18:33:00,54.3,51.1,30.00,West,263,6.0,9.0,89,0.00,,---,0.00,VWS V14.01,2013-01-20 23:33:00,
2013-01-20 18:38:00,53.9,50.7,30.00,West,265,7.0,8.0,89,0.00,,---,0.00,VWS V14.01,2013-01-20 23:38:00,
2013-01-20 18:43:00,53.7,50.5,30.00,West,271,8.0,8.0,89,0.00,,---,0.00,VWS V14.01,2013-01-20 23:43:00,
2013-01-20 18:48:00,53.6,50.4,30.00,West,275,7.0,8.0,89,0.00,,---,0.00,VWS V14.01,2013-01-20 23:48:00,
2013-01-20 18:53:00,53.7,50.5,30.01,West,271,9.0,10.0,89,0.00,,---,0.00,VWS V14.01,2013-01-20 23:53:00,
2013-01-20 18:58:00,53.7,50.2,30.01,West,278,5.0,8.0,88,0.00,,---,0.00,VWS V14.01,2013-01-20 23:58:00,
2013-01-20 19:03:00,53.7,49.9,30.01,West,277,6.0,7.0,87,0.00,,---,0.00,VWS V14.01,2013-01-21 00:03:00,
2013-01-20 19:08:00,53.7,49.9,30.01,West,277,7.0,7.0,87,0.00,,---,0.00,VWS V14.01,2013-01-21 00:08:00,
2013-01-20 19:13:00,53.6,49.5,30.01,West,279,4.0,5.0,86,0.00,,---,0.00,VWS V14.01,2013-01-21 00:13:00,
2013-01-20 19:18:00,53.4,49.3,30.01,West,277,3.0,4.0,86,0.00,,---,0.00,VWS V14.01,2013-01-21 00:18:00,
2013-01-20 19:23:00,53.3,49.2,30.01,West,277,3.0,3.0,86,0.00,,---,0.00,VWS V14.01,2013-01-21 00:23:00,
2013-01-20 19:28:00,53.1,49.0,30.01,West,277,2.0,2.0,86,0.00,,---,0.00,VWS V14.01,2013-01-21 00:28:00,
2013-01-20 19:33:00,52.9,48.5,30.01,West,277,1.0,2.0,85,0.00,,---,0.00,VWS V14.01,2013-01-21 00:33:00,
2013-01-20 19:38:00,52.7,48.3,30.01,West,277,0.0,2.0,85,0.00,,---,0.00,VWS V14.01,2013-01-21 00:38:00,
2013-01-20 19:43:00,52.5,48.1,30.01,West,277,0.0,0.0,85,0.00,,---,0.00,VWS V14.01,2013-01-21 00:43:00,
2013-01-20 19:48:00,52.3,47.9,30.02,West,277,0.0,0.0,85,0.00,,---,0.00,VWS V14.01,2013-01-21 00:48:00,
2013-01-20 19:53:00,52.0,47.6,30.02,West,277,0.0,0.0,85,0.00,,---,0.00,VWS V14.01,2013-01-21 00:53:00,
2013-01-20 19:58:00,51.8,47.8,30.02,West,277,0.0,0.0,86,0.00,,---,0.00,VWS V14.01,2013-01-21 00:58:00,
2013-01-20 20:03:00,51.6,47.6,30.02,West,277,3.0,3.0,86,0.00,,---,0.00,VWS V14.01,2013-01-21 01:03:00,
2013-01-20 20:08:00,51.9,47.8,30.02,WNW,303,4.0,6.0,86,0.00,,---,0.00,VWS V14.01,2013-01-21 01:08:00,
2013-01-20 20:13:00,52.8,48.1,30.02,WNW,298,4.0,5.0,84,0.00,,---,0.00,VWS V14.01,2013-01-21 01:13:00,
2013-01-20 20:18:00,53.2,48.2,30.02,WNW,297,4.0,5.0,83,0.00,,---,0.00,VWS V14.01,2013-01-21 01:18:00,
2013-01-20 20:23:00,53.3,48.0,30.02,NW,307,4.0,5.0,82,0.00,,---,0.00,VWS V14.01,2013-01-21 01:23:00,
2013-01-20 20:28:00,53.3,47.6,30.03,WNW,300,5.0,6.0,81,0.00,,---,0.00,VWS V14.01,2013-01-21 01:28:00,
2013-01-20 20:33:00,53.4,47.4,30.03,NW,304,5.0,5.0,80,0.00,,---,0.00,VWS V14.01,2013-01-21 01:33:00,
2013-01-20 20:38:00,53.5,47.2,30.03,NW,305,5.0,6.0,79,0.00,,---,0.00,VWS V14.01,2013-01-21 01:38:00,
2013-01-20 20:43:00,53.4,46.7,30.03,WNW,302,5.0,5.0,78,0.00,,---,0.00,VWS V14.01,2013-01-21 01:43:00,
2013-01-20 20:48:00,53.3,46.3,30.03,WNW,298,5.0,6.0,77,0.00,,---,0.00,VWS V14.01,2013-01-21 01:48:00,
2013-01-20 20:53:00,53.2,45.5,30.03,WNW,294,6.0,7.0,75,0.00,,---,0.00,VWS V14.01,2013-01-21 01:53:00,
2013-01-20 20:58:00,53.2,44.8,30.03,WNW,291,6.0,7.0,73,0.00,,---,0.00,VWS V14.01,2013-01-21 01:58:00,
2013-01-20 21:03:00,53.1,44.7,30.04,WNW,288,5.0,6.0,73,0.00,,---,0.00,VWS V14.01,2013-01-21 02:03:00,
2013-01-20 21:08:00,53.1,44.7,30.04,WNW,298,6.0,7.0,73,0.00,,---,0.00,VWS V14.01,2013-01-21 02:08:00,
2013-01-20 21:13:00,53.2,44.8,30.04,WNW,302,6.0,6.0,73,0.00,,---,0.00,VWS V14.01,2013-01-21 02:13:00,
2013-01-20 21:18:00,53.3,44.9,30.04,NW,304,5.0,6.0,73,0.00,,---,0.00,VWS V14.01,2013-01-21 02:18:00,
2013-01-20 21:23:00,53.4,45.0,30.04,WNW,302,5.0,5.0,73,0.00,,---,0.00,VWS V14.01,2013-01-21 02:23:00,
2013-01-20 21:28:00,53.5,44.0,30.04,WNW,301,5.0,5.0,70,0.00,,---,0.00,VWS V14.01,2013-01-21 02:28:00,
2013-01-20 21:33:00,53.6,43.3,30.04,WNW,302,5.0,5.0,68,0.00,,---,0.00,VWS V14.01,2013-01-21 02:33:00,
2013-01-20 21:38:00,53.6,42.5,30.05,WNW,302,4.0,5.0,66,0.00,,---,0.00,VWS V14.01,2013-01-21 02:38:00,
2013-01-20 21:43:00,53.6,42.5,30.05,WNW,302,5.0,5.0,66,0.00,,---,0.00,VWS V14.01,2013-01-21 02:43:00,
2013-01-20 21:48:00,53.5,42.0,30.05,WNW,300,4.0,4.0,65,0.00,,---,0.00,VWS V14.01,2013-01-21 02:48:00,
2013-01-20 21:53:00,53.2,41.8,30.05,WNW,300,4.0,4.0,65,0.00,,---,0.00,VWS V14.01,2013-01-21 02:53:00,
2013-01-20 21:58:00,53.3,41.5,30.05,WNW,300,4.0,5.0,64,0.00,,---,0.00,VWS V14.01,2013-01-21 02:58:00,
2013-01-20 22:03:00,53.5,41.6,30.05,WNW,300,4.0,5.0,64,0.00,,---,0.00,VWS V14.01,2013-01-21 03:03:00,
2013-01-20 22:08:00,53.4,41.5,30.05,WNW,300,5.0,5.0,64,0.00,,---,0.00,VWS V14.01,2013-01-21 03:08:00,
2013-01-20 22:13:00,53.4,41.9,30.05,WNW,300,4.0,4.0,65,0.00,,---,0.00,VWS V14.01,2013-01-21 03:13:00,
2013-01-20 22:18:00,53.5,42.0,30.05,WNW,300,4.0,5.0,65,0.00,,---,0.00,VWS V14.01,2013-01-21 03:18:00,
2013-01-20 22:23:00,53.5,42.0,30.05,WNW,300,5.0,5.0,65,0.00,,---,0.00,VWS V14.01,2013-01-21 03:23:00,
2013-01-20 22:28:00,53.6,41.7,30.05,WNW,300,4.0,5.0,64,0.00,,---,0.00,VWS V14.01,2013-01-21 03:28:00,
2013-01-20 22:33:00,53.6,41.7,30.05,WNW,300,4.0,5.0,64,0.00,,---,0.00,VWS V14.01,2013-01-21 03:33:00,
2013-01-20 22:38:00,53.5,41.2,30.05,NW,305,5.0,6.0,63,0.00,,---,0.00,VWS V14.01,2013-01-21 03:38:00,
2013-01-20 22:43:00,53.3,41.5,30.05,NW,304,6.0,6.0,64,0.00,,---,0.00,VWS V14.01,2013-01-21 03:43:00,
2013-01-20 22:48:00,53.1,41.3,30.05,NW,304,4.0,5.0,64,0.00,,---,0.00,VWS V14.01,2013-01-21 03:48:00,
2013-01-20 22:53:00,52.8,41.0,30.05,NW,304,5.0,6.0,64,0.00,,---,0.00,VWS V14.01,2013-01-21 03:53:00,
2013-01-20 22:58:00,52.6,41.2,30.05,NW,304,5.0,5.0,65,0.00,,---,0.00,VWS V14.01,2013-01-21 03:58:00,
2013-01-20 23:03:00,52.7,40.9,30.05,NW,306,5.0,6.0,64,0.00,,---,0.00,VWS V14.01,2013-01-21 04:03:00,
2013-01-20 23:08:00,52.7,40.5,30.05,NW,309,4.0,5.0,63,0.00,,---,0.00,VWS V14.01,2013-01-21 04:08:00,
2013-01-20 23:13:00,52.6,40.4,30.05,NW,309,6.0,6.0,63,0.00,,---,0.00,VWS V14.01,2013-01-21 04:13:00,
2013-01-20 23:18:00,52.5,40.3,30.05,NW,311,6.0,6.0,63,0.00,,---,0.00,VWS V14.01,2013-01-21 04:18:00,
2013-01-20 23:23:00,52.4,39.8,30.05,NW,308,5.0,6.0,62,0.00,,---,0.00,VWS V14.01,2013-01-21 04:23:00,
2013-01-20 23:28:00,52.3,40.1,30.05,NW,306,5.0,6.0,63,0.00,,---,0.00,VWS V14.01,2013-01-21 04:28:00,
2013-01-20 23:33:00,52.2,40.0,30.05,NW,306,5.0,5.0,63,0.00,,---,0.00,VWS V14.01,2013-01-21 04:33:00,
2013-01-20 23:38:00,52.0,39.8,30.05,NW,306,5.0,6.0,63,0.00,,---,0.00,VWS V14.01,2013-01-21 04:38:00,
2013-01-20 23:43:00,51.7,39.5,30.05,NW,307,4.0,5.0,63,0.00,,---,0.00,VWS V14.01,2013-01-21 04:43:00,
2013-01-20 23:48:00,51.6,39.8,30.05,NW,306,5.0,6.0,64,0.00,,---,0.00,VWS V14.01,2013-01-21 04:48:00,
2013-01-20 23:53:00,51.6,39.8,30.05,NW,310,5.0,7.0,64,0.00,,---,0.00,VWS V14.01,2013-01-21 04:53:00,
2013-01-20 23:58:00,51.4,39.7,30.05,NW,308,4.0,6.0,64,0.00,,---,0.00,VWS V14.01,2013-01-21 04:58:00,